Flight Track Log - Related Links

Times and Time Zones

All times are in EDT time to prevent confusion due to time zone crossing. See the BJS612 flight status page for this flight to view local times or setup timezone preferences in your user account.

Time Position Orientation Groundspeed Altitude Reporting Facility
EDT Latitude Longitude Course Direction KTS MPH feet Rate Location/Type
Tue 07:25:30 AM 41.0333 -73.7167 304° West 185 213 2,700  Level New York TRACON
Tue 07:26:30 AM 41.0667 -73.7833 304° West 222 255 5,400 2,800 Climbing New York TRACON
Tue 07:27:30 AM 41.0667 -73.8500 270° West 239 275 8,300 2,842 Climbing New York TRACON
Tue 07:28:24 AM 41.0333 -73.9333 242° Southwest 264 304 10,800 3,000 Climbing New York TRACON
Tue 07:29:24 AM 41.0000 -74.0333 246° West 318 366 14,000 2,150 Climbing New York TRACON
Tue 07:30:24 AM 40.9667 -74.1833 254° West 377 434 15,100 1,100 Climbing New York TRACON
Tue 07:31:24 AM 40.9667 -74.3167 270° West 398 458 16,200 950 Climbing New York TRACON
Tue 07:32:24 AM 40.9667 -74.4667 270° West 395 455 17,000 397 Climbing New York TRACON
Tue 07:33:25 AM 40.9500 -74.6167 262° West 401 461 17,000  Level New York TRACON
Tue 07:34:05 AM 40.9442 -74.6994 265° West 399 459 17,000  Level New York Center
Tue 07:35:05 AM 40.9378 -74.8308 266° West 413 475 17,000  Level New York Center
Tue 07:36:03 AM 40.9278 -74.9950 265° West 413 475 17,000 763 Level New York Center
Tue 07:37:03 AM 40.9214 -75.1100 266° West 401 461 18,500 2,132 Climbing New York Center
Tue 07:38:04 AM 40.8969 -75.2622 258° West 390 449 21,300 2,262 Climbing New York Center
Tue 07:39:05 AM 40.8689 -75.3947 254° West 390 449 23,100 1,361 Climbing New York Center
Tue 07:40:03 AM 40.8342 -75.5406 253° West 397 457 24,000 1,563 Climbing New York Center
Tue 07:41:04 AM 40.7967 -75.6914 252° West 421 484 26,200 2,607 Climbing New York Center
Tue 07:42:05 AM 40.7647 -75.8508 255° West 422 486 29,300 2,672 Climbing New York Center
Tue 07:43:03 AM 40.7544 -75.9953 265° West 416 479 31,500 1,932 Climbing New York Center
Tue 07:44:03 AM 40.7456 -76.1453 266° West 411 473 33,100 1,240 Climbing New York Center
Tue 07:45:04 AM 40.7344 -76.2978 265° West 411 473 34,000 443 Climbing New York Center
Tue 07:46:05 AM 40.7228 -76.4556 264° West 423 487 34,000  Level New York Center
Tue 07:47:03 AM 40.7092 -76.6078 263° West 428 493 34,000  Level New York Center
Tue 07:48:05 AM 40.6992 -76.7631 265° West 428 493 34,000  Level New York Center
Tue 07:49:04 AM 40.6850 -76.9206 263° West 428 493 34,000 101 Level New York Center
Tue 07:50:04 AM 40.6747 -77.0756 265° West 428 493 34,200 1,100 Climbing New York Center
Tue 07:51:04 AM 40.6603 -77.2278 263° West 428 493 36,200 1,900 Climbing New York Center
Tue 07:52:04 AM 40.6511 -77.3553 265° West 416 479 38,000 1,736 Climbing New York Center
Tue 07:53:05 AM 40.6389 -77.4964 264° West 398 458 39,700 615 Climbing New York Center
Tue 07:55:19 AM 40.6094 -77.8369 264° West 401 461 40,000 93 Climbing Cleveland Center
Tue 07:56:19 AM 40.5961 -77.9797 263° West 401 461 40,000  Level Cleveland Center
Tue 07:57:19 AM 40.5828 -78.1281 263° West 406 467 40,000  Level Cleveland Center
Tue 07:58:19 AM 40.5692 -78.2706 263° West 406 467 40,000  Level Cleveland Center
Tue 07:59:19 AM 40.5572 -78.4133 264° West 406 467 40,000  Level Cleveland Center
Tue 08:00:19 AM 40.5433 -78.5586 263° West 406 467 40,000  Level Cleveland Center
Tue 08:01:19 AM 40.5269 -78.6983 261° West 406 467 40,000  Level Cleveland Center
Tue 08:02:19 AM 40.5147 -78.8433 264° West 406 467 40,000  Level Cleveland Center
Tue 08:03:19 AM 40.5042 -78.9856 264° West 406 467 40,000  Level Cleveland Center
Tue 08:04:19 AM 40.4936 -79.1278 264° West 406 467 40,000  Level Cleveland Center
Tue 08:05:19 AM 40.4828 -79.2672 264° West 406 467 40,000  Level Cleveland Center
Tue 08:06:19 AM 40.4717 -79.4042 264° West 393 452 40,000  Level Cleveland Center
Tue 08:07:19 AM 40.4606 -79.5461 264° West 388 447 40,000  Level Cleveland Center
Tue 08:08:19 AM 40.4472 -79.6828 263° West 388 447 40,000  Level Cleveland Center
Tue 08:09:19 AM 40.4358 -79.8219 264° West 388 447 40,000  Level Cleveland Center
Tue 08:10:19 AM 40.4239 -79.9422 263° West 388 447 40,000 -50 Level Cleveland Center
Tue 08:11:19 AM 40.4122 -80.1086 265° West 399 459 39,900  Descending Cleveland Center
Tue 08:12:19 AM 40.3939 -80.2422 260° West 400 460 40,000 -400 Climbing Cleveland Center
Tue 08:13:19 AM 40.3839 -80.3842 265° West 394 453 39,100 -1,150 Descending Cleveland Center
Tue 08:14:19 AM 40.3714 -80.5231 263° West 389 448 37,700 -1,300 Descending Cleveland Center
Tue 08:15:19 AM 40.3569 -80.6703 263° West 394 453 36,500 -850 Descending Cleveland Center
Tue 08:16:19 AM 40.3419 -80.8175 262° West 400 460 36,000 -773 Descending Cleveland Center
Tue 08:18:02 AM 40.3139 -81.0756 262° West 422 486 34,400 -727 Descending Indianapolis Center
Tue 08:19:04 AM 40.2975 -81.2314 262° West 426 490 34,000 -195 Descending Indianapolis Center
Tue 08:20:05 AM 40.2822 -81.3847 263° West 421 484 34,000  Level Indianapolis Center
Tue 08:21:07 AM 40.2658 -81.5392 262° West 424 488 34,000  Level Indianapolis Center
Tue 08:22:09 AM 40.2500 -81.6936 262° West 424 488 34,000 -341 Level Indianapolis Center
Tue 08:23:10 AM 40.2211 -81.8447 256° West 419 482 33,300 -537 Descending Indianapolis Center
Tue 08:24:12 AM 40.1800 -81.9878 249° West 417 480 32,900 -244 Descending Indianapolis Center
Tue 08:25:13 AM 40.1397 -82.1292 250° West 414 476 32,800 -439 Descending Indianapolis Center
Tue 08:26:15 AM 40.1008 -82.2728 251° West 415 478 32,000 -390 Descending Indianapolis Center
Tue 08:27:16 AM 40.0603 -82.4181 250° West 419 482 32,000 -49 Level Indianapolis Center
Tue 08:28:18 AM 40.0186 -82.5631 249° West 422 486 31,900 -919 Descending Indianapolis Center
Tue 08:29:20 AM 39.9711 -82.7333 250° West 425 489 30,100 -2,146 Descending Indianapolis Center
Tue 08:30:21 AM 39.9289 -82.8797 249° West 426 490 27,500 -2,537 Descending Indianapolis Center
Tue 08:31:23 AM 39.8861 -83.0297 250° West 434 499 24,900 -2,488 Descending Indianapolis Center
Tue 08:32:24 AM 39.8433 -83.1772 249° West 433 498 22,400 -2,049 Descending Indianapolis Center
Tue 08:33:26 AM 39.8050 -83.3125 250° West 405 466 20,700 -1,790 Descending Indianapolis Center
Tue 08:34:28 AM 39.7667 -83.4408 249° West 373 429 18,700 -1,902 Descending Indianapolis Center
Tue 08:35:29 AM 39.7242 -83.5678 247° West 372 428 16,800 -1,902 Descending Indianapolis Center
Tue 08:36:31 AM 39.6694 -83.6786 237° Southwest 362 417 14,800 -1,790 Descending Indianapolis Center
Tue 08:37:33 AM 39.6169 -83.7889 238° Southwest 357 411 13,100 -1,463 Descending Indianapolis Center
Tue 08:38:34 AM 39.5650 -83.8958 238° Southwest 348 400 11,800 -1,024 Descending Indianapolis Center
Tue 08:39:36 AM 39.5147 -84.0017 238° Southwest 345 397 11,000 -585 Descending Indianapolis Center
Tue 08:40:37 AM 39.4597 -84.0997 234° Southwest 335 386 10,600 -683 Descending Indianapolis Center
Tue 08:41:39 AM 39.4047 -84.1711 225° Southwest 280 322 9,600 -1,220 Descending Indianapolis Center
Tue 08:42:40 AM 39.3750 -84.2539 245° Southwest 270 311 8,100 -1,854 Descending Indianapolis Center
Tue 08:43:42 AM 39.3469 -84.3283 244° Southwest 258 297 5,800 -2,049 Descending Indianapolis Center
Tue 08:44:43 AM 39.2717 -84.3325 182° South 241 277 3,900 -1,463 Descending Indianapolis Center
Tue 08:45:45 AM 39.2153 -84.3550 197° South 223 257 2,800 -905 Descending Indianapolis Center
Tue 08:47:42 AM 39.1333 -84.4000 203° Southwest 125 144 1,200 -821 Descending Cincinnati TRACON
Tue 08:49:00 AM 39.1033 -84.4186 223° Southwest  Level Estimated
Tue 08:56:00 AM 39.1000 -84.4167 57° Northeast  Level FlightAware Approximate

Login

Don't have an account? Register now (free) for customized features, flight alerts, and more!